Time;durP1;ratioP1;P1;durP2;ratioP2;P2;SDS_P1;SDS_P2;PMS_P1;PMS_P2;Temp;Humidity;BMP_temperature;BMP_pressure;BME280_temperature;BME280_humidity;BME280_pressure;Samples;Min_cycle;Max_cycle;Signal;HPM_P1;HPM_P2
2022/04/13 00:02:07;;;;;;;1.12;0.40;;;;;;;2.63;99.05;100056.22;1749781;82;20877;-46
2022/04/13 00:04:34;;;;;;;0.65;0.35;;;;;;;2.61;99.14;100050.24;1749880;82;20936;-46
2022/04/13 00:07:01;;;;;;;0.98;0.30;;;;;;;2.61;99.53;100054.48;1749830;82;20984;-48
2022/04/13 00:09:29;;;;;;;0.23;0.23;;;;;;;2.59;99.35;100055.33;1749835;82;21522;-47
2022/04/13 00:11:55;;;;;;;0.62;0.60;;;;;;;2.59;99.48;100063.00;1722130;82;20837;-46
2022/04/13 00:14:23;;;;;;;6.33;0.40;;;;;;;2.58;99.14;100060.00;1749932;82;20877;-46
2022/04/13 00:16:51;;;;;;;0.40;0.40;;;;;;;2.59;99.28;100054.05;1750143;82;21507;-46
2022/04/13 00:19:20;;;;;;;0.35;0.35;;;;;;;2.57;99.50;100040.84;1749824;82;20928;-46
2022/04/13 00:21:46;;;;;;;0.70;0.70;;;;;;;2.56;99.83;100050.64;1750157;82;21222;-46
2022/04/13 00:24:14;;;;;;;0.85;0.42;;;;;;;2.57;99.05;100048.07;1749774;82;21174;-46
2022/04/13 00:26:41;;;;;;;0.50;0.50;;;;;;;2.56;99.31;100058.30;1749964;82;21395;-47
2022/04/13 00:29:09;;;;;;;0.90;0.42;;;;;;;2.56;99.20;100054.03;1749825;82;20885;-46
2022/04/13 00:31:36;;;;;;;2.47;0.40;;;;;;;2.56;99.13;100046.80;1750014;82;21660;-46
2022/04/13 00:34:04;;;;;;;1.85;0.40;;;;;;;2.57;99.22;100054.91;1749661;82;21451;-46
2022/04/13 00:36:31;;;;;;;0.33;0.33;;;;;;;2.55;99.59;100035.70;1669585;85;20995;-46
2022/04/13 00:38:59;;;;;;;0.95;0.60;;;;;;;2.57;99.52;100062.12;1693854;83;20924;-46
2022/04/13 00:41:26;;;;;;;0.40;0.40;;;;;;;2.56;99.27;100047.64;1719510;82;21034;-46
2022/04/13 00:44:08;;;;;;;0.20;0.20;;;;;;;2.57;99.74;100039.56;1706551;84;21059;-46
2022/04/13 00:46:35;;;;;;;0.80;0.30;;;;;;;2.56;99.41;100032.31;1705952;83;21385;-45
2022/04/13 00:49:03;;;;;;;0.47;0.30;;;;;;;2.53;99.58;100043.78;1706471;83;20890;-46
2022/04/13 00:51:30;;;;;;;0.20;0.20;;;;;;;2.54;99.77;100048.05;1706519;84;20976;-46
2022/04/13 00:53:58;;;;;;;1.65;0.28;;;;;;;2.55;99.85;100036.98;1706481;83;21007;-46
2022/04/13 00:56:27;;;;;;;1.95;0.33;;;;;;;2.56;100.00;100036.58;1706642;84;20976;-46
2022/04/13 00:58:57;;;;;;;0.20;0.20;;;;;;;2.54;100.00;100033.16;1706361;84;21089;-46
2022/04/13 01:01:25;;;;;;;1.80;0.30;;;;;;;2.54;99.92;100039.11;1706634;84;20901;-46
2022/04/13 01:03:53;;;;;;;0.57;0.28;;;;;;;2.51;100.00;100031.42;1706735;84;21534;-46
2022/04/13 01:06:20;;;;;;;0.95;0.40;;;;;;;2.55;100.00;100028.48;1706695;84;21530;-47
2022/04/13 01:08:50;;;;;;;0.93;0.37;;;;;;;2.53;100.00;100028.45;1706664;82;20996;-45
2022/04/13 01:11:17;;;;;;;0.40;0.40;;;;;;;2.53;100.00;100026.34;1706625;84;21282;-46
2022/04/13 01:13:45;;;;;;;1.52;0.30;;;;;;;2.51;100.00;100013.53;1686613;84;21527;-46
2022/04/13 01:16:13;;;;;;;0.40;0.20;;;;;;;2.52;100.00;100022.04;1706738;84;21451;-47
2022/04/13 01:18:41;;;;;;;0.93;0.20;;;;;;;2.48;100.00;100023.73;1706779;84;21389;-46
2022/04/13 01:21:13;;;;;;;0.42;0.35;;;;;;;2.49;100.00;100020.74;1706677;84;20949;-46
2022/04/13 01:23:39;;;;;;;0.62;0.40;;;;;;;2.47;100.00;100014.77;1706542;84;20941;-46
2022/04/13 01:26:06;;;;;;;0.30;0.30;;;;;;;2.47;100.00;99996.88;1706570;84;20968;-47
2022/04/13 01:28:34;;;;;;;0.72;0.30;;;;;;;2.43;100.00;100013.47;1664241;84;20913;-46
2022/04/13 01:31:03;;;;;;;0.30;0.30;;;;;;;2.40;100.00;100008.34;1706809;84;20965;-47
2022/04/13 01:33:31;;;;;;;1.17;0.40;;;;;;;2.39;100.00;100015.98;1706622;84;20949;-48
2022/04/13 01:36:00;;;;;;;0.20;0.20;;;;;;;2.40;100.00;100002.36;1706664;84;21069;-46
2022/04/13 01:38:29;;;;;;;1.55;0.50;;;;;;;2.39;100.00;100014.70;1706675;84;20964;-47
2022/04/13 01:40:57;;;;;;;0.42;0.42;;;;;;;2.36;100.00;99997.66;1706530;84;20952;-46
2022/04/13 01:43:25;;;;;;;0.30;0.30;;;;;;;2.33;100.00;100008.27;1706524;83;20972;-47
2022/04/13 01:45:53;;;;;;;1.07;0.40;;;;;;;2.28;100.00;99998.88;1706681;83;20881;-46
2022/04/13 01:48:19;;;;;;;2.30;0.37;;;;;;;2.26;100.00;100003.52;1706724;84;21168;-46
2022/04/13 01:50:46;;;;;;;0.70;0.40;;;;;;;2.23;100.00;99999.67;1706599;83;20885;-47
2022/04/13 01:53:14;;;;;;;0.98;0.30;;;;;;;2.21;100.00;100008.61;1686645;84;20925;-47
2022/04/13 01:55:42;;;;;;;0.60;0.50;;;;;;;2.21;100.00;100002.64;1706528;84;20999;-47
2022/04/13 01:58:09;;;;;;;0.68;0.35;;;;;;;2.20;100.00;100003.08;1706708;84;20952;-46
2022/04/13 02:00:37;;;;;;;0.20;0.20;;;;;;;2.16;100.00;99998.78;1706591;84;21020;-47
2022/04/13 02:03:05;;;;;;;0.57;0.35;;;;;;;2.08;100.00;99986.34;1706705;84;20909;-46
2022/04/13 02:05:32;;;;;;;0.20;0.20;;;;;;;2.01;100.00;99983.75;1706996;84;21463;-46
2022/04/13 02:08:00;;;;;;;4.08;0.60;;;;;;;1.99;100.00;99976.50;1706559;82;20981;-46
2022/04/13 02:10:28;;;;;;;0.57;0.45;;;;;;;1.98;100.00;99976.47;1706647;84;21031;-46
2022/04/13 02:12:56;;;;;;;1.35;0.30;;;;;;;1.98;100.00;99978.63;1706653;84;21889;-46
2022/04/13 02:15:23;;;;;;;0.98;0.50;;;;;;;1.97;100.00;99984.97;1706556;84;20988;-46
2022/04/13 02:17:51;;;;;;;0.30;0.30;;;;;;;1.96;100.00;99981.58;1706623;84;20941;-46
2022/04/13 02:20:18;;;;;;;0.45;0.45;;;;;;;1.97;100.00;99969.25;1706649;84;20921;-46
2022/04/13 02:22:47;;;;;;;0.82;0.50;;;;;;;1.91;100.00;99981.97;1706614;84;20925;-46
2022/04/13 02:25:13;;;;;;;0.40;0.40;;;;;;;1.88;100.00;99978.08;1706750;83;21097;-46
2022/04/13 02:27:42;;;;;;;0.50;0.50;;;;;;;1.89;100.00;99978.52;1706516;83;20945;-46
2022/04/13 02:30:11;;;;;;;1.05;0.53;;;;;;;1.85;100.00;99971.27;1706576;83;20937;-46
2022/04/13 02:32:40;;;;;;;0.65;0.42;;;;;;;1.86;100.00;99968.27;1706504;84;20933;-46
2022/04/13 02:35:08;;;;;;;0.33;0.33;;;;;;;1.86;100.00;99975.94;1706580;84;20858;-46
2022/04/13 02:37:35;;;;;;;1.17;0.50;;;;;;;1.86;100.00;99981.91;1706572;84;21173;-46
2022/04/13 02:40:06;;;;;;;1.27;0.60;;;;;;;1.86;100.00;99973.38;1706595;83;20857;-46
2022/04/13 02:42:34;;;;;;;1.15;0.50;;;;;;;1.86;100.00;99976.80;1709400;83;20959;-47
2022/04/13 02:45:01;;;;;;;0.50;0.50;;;;;;;1.86;100.00;99965.32;1720043;83;20944;-46
2022/04/13 02:47:28;;;;;;;0.30;0.30;;;;;;;1.88;100.00;99970.86;1720234;83;20889;-46
2022/04/13 02:49:56;;;;;;;1.07;0.47;;;;;;;1.88;100.00;99971.70;1720191;83;20975;-46
2022/04/13 02:52:25;;;;;;;2.83;0.30;;;;;;;1.88;100.00;99974.25;1720139;83;20944;-47
2022/04/13 02:54:52;;;;;;;0.40;0.40;;;;;;;1.88;100.00;99965.31;1720016;83;20928;-47
2022/04/13 02:57:18;;;;;;;0.95;0.55;;;;;;;1.90;100.00;99964.94;1720296;83;20905;-46
2022/04/13 02:59:46;;;;;;;0.50;0.50;;;;;;;1.90;100.00;99967.49;1720117;83;21281;-46
2022/04/13 03:02:16;;;;;;;1.62;0.45;;;;;;;1.88;100.00;99964.48;1720060;83;21272;-46
2022/04/13 03:04:45;;;;;;;0.57;0.47;;;;;;;1.86;100.00;99968.27;1694124;83;20861;-46
2022/04/13 03:07:14;;;;;;;1.98;0.40;;;;;;;1.88;100.00;99972.13;1720026;82;20960;-45
2022/04/13 03:09:40;;;;;;;1.57;0.60;;;;;;;1.84;100.00;99959.34;1720159;82;20865;-46
2022/04/13 03:12:08;;;;;;;0.78;0.78;;;;;;;1.79;100.00;99969.94;1720185;82;20972;-45
2022/04/13 03:14:36;;;;;;;0.40;0.40;;;;;;;1.77;100.00;99971.63;1719919;83;21256;-46
2022/04/13 03:17:03;;;;;;;0.30;0.30;;;;;;;1.79;100.00;99967.39;1720110;83;20880;-46
2022/04/13 03:19:31;;;;;;;1.35;0.50;;;;;;;1.79;100.00;99971.63;1719997;83;20893;-46
2022/04/13 03:21:59;;;;;;;0.45;0.45;;;;;;;1.77;100.00;99963.09;1719874;82;20956;-47
2022/04/13 03:24:25;;;;;;;0.70;0.65;;;;;;;1.76;100.00;99968.61;1720172;83;20983;-46
2022/04/13 03:26:53;;;;;;;1.30;0.50;;;;;;;1.76;100.00;99976.70;1720068;83;21100;-47
2022/04/13 03:29:20;;;;;;;2.12;0.80;;;;;;;1.75;100.00;99967.33;1720040;83;20976;-46
2022/04/13 03:31:46;;;;;;;0.60;0.60;;;;;;;1.75;100.00;99968.61;1720093;83;21430;-46
2022/04/13 03:34:13;;;;;;;0.50;0.50;;;;;;;1.75;100.00;99972.00;1720195;83;21032;-47
2022/04/13 03:36:40;;;;;;;0.60;0.60;;;;;;;1.78;100.00;99975.02;1720152;83;20932;-47
2022/04/13 03:39:08;;;;;;;1.45;0.50;;;;;;;1.74;100.00;99972.84;1693538;83;22134;-47
2022/04/13 03:41:36;;;;;;;1.02;0.85;;;;;;;1.72;100.00;99965.59;1720096;83;20888;-46
2022/04/13 03:44:04;;;;;;;0.60;0.60;;;;;;;1.72;100.00;99954.98;1710514;82;20964;-48
2022/04/13 03:46:32;;;;;;;0.62;0.62;;;;;;;1.71;100.00;99968.58;1706526;83;20925;-47
2022/04/13 03:48:59;;;;;;;0.82;0.62;;;;;;;1.70;100.00;99960.48;1706552;84;21542;-47
2022/04/13 03:51:26;;;;;;;0.65;0.65;;;;;;;1.71;100.00;99955.82;1706561;84;22115;-46
2022/04/13 03:53:54;;;;;;;0.60;0.60;;;;;;;1.72;100.00;99957.53;1706536;84;20929;-49
2022/04/13 03:56:21;;;;;;;0.95;0.80;;;;;;;1.72;100.00;99961.36;1706747;84;21475;-47
2022/04/13 03:58:49;;;;;;;1.67;0.70;;;;;;;1.70;100.00;99955.39;1706471;84;20949;-48
2022/04/13 04:01:16;;;;;;;0.82;0.72;;;;;;;1.71;100.00;99953.27;1706568;82;20980;-47
2022/04/13 04:03:42;;;;;;;0.88;0.80;;;;;;;1.75;100.00;99959.67;1706410;83;21099;-46
2022/04/13 04:06:11;;;;;;;0.95;0.85;;;;;;;1.71;100.00;99959.65;1706465;84;20976;-46
2022/04/13 04:08:38;;;;;;;1.87;0.60;;;;;;;1.72;100.00;99970.29;1706519;82;20949;-46
2022/04/13 04:11:06;;;;;;;0.95;0.60;;;;;;;1.72;100.00;99963.91;1706678;84;20917;-47
2022/04/13 04:13:33;;;;;;;0.57;0.57;;;;;;;1.71;100.00;99963.87;1706649;84;21040;-47
2022/04/13 04:16:00;;;;;;;2.60;0.60;;;;;;;1.72;100.00;99958.80;1706551;84;21166;-49
2022/04/13 04:18:45;;;;;;;1.17;0.60;;;;;;;1.72;100.00;99957.94;1706393;83;20980;-48
2022/04/13 04:21:12;;;;;;;0.72;0.37;;;;;;;1.71;100.00;99962.20;1706219;83;20996;-47
2022/04/13 04:23:50;;;;;;;0.93;0.60;;;;;;;1.71;100.00;99962.20;1706611;83;20901;-47
2022/04/13 04:26:18;;;;;;;0.37;0.37;;;;;;;1.72;100.00;99965.59;1706647;84;20973;-46
2022/04/13 04:28:45;;;;;;;0.50;0.50;;;;;;;1.71;100.00;99963.87;1706780;84;21463;-46
2022/04/13 04:31:13;;;;;;;0.70;0.70;;;;;;;1.74;100.00;99963.07;1706586;83;21412;-49
2022/04/13 04:33:41;;;;;;;1.05;0.68;;;;;;;1.76;100.00;99965.22;1706502;84;21423;-49
2022/04/13 04:36:11;;;;;;;0.50;0.50;;;;;;;1.76;100.00;99970.32;1686717;84;21581;-48
2022/04/13 04:38:37;;;;;;;0.50;0.50;;;;;;;1.75;100.00;99969.45;1706463;84;21011;-49
2022/04/13 04:41:23;;;;;;;0.57;0.57;;;;;;;1.77;100.00;99963.09;1689767;84;21387;-47
2022/04/13 04:44:10;;;;;;;0.57;0.45;;;;;;;1.77;100.00;99963.09;1712934;83;20998;-49
2022/04/13 04:46:57;;;;;;;0.50;0.50;;;;;;;1.77;100.00;99962.69;1720083;82;20975;-49
2022/04/13 04:49:24;;;;;;;0.72;0.60;;;;;;;1.79;100.00;99970.34;1720083;83;21059;-46
2022/04/13 04:52:18;;;;;;;0.50;0.45;;;;;;;1.81;100.00;99961.00;1720095;83;21007;-49
2022/04/13 04:54:50;;;;;;;0.42;0.42;;;;;;;1.81;100.00;99968.25;1719976;83;21148;-49
2022/04/13 04:59:42;;;;;;;0.60;0.60;;;;;;;1.81;100.00;99973.36;1816135;79;27365;-48
2022/04/13 05:02:42;;;;;;;1.20;0.68;;;;;;;1.77;100.00;99979.28;1789405;80;20888;-49
2022/04/13 05:07:55;;;;;;;1.60;0.70;;;;;;;1.79;100.00;99975.45;1783347;80;20923;-48
2022/04/13 05:10:50;;;;;;;1.57;0.80;;;;;;;1.81;100.00;99970.81;1760703;81;20872;-47
2022/04/13 05:13:14;;;;;;;0.88;0.42;;;;;;;1.79;100.00;99966.11;1760211;81;20976;-46
2022/04/13 05:15:41;;;;;;;1.90;0.60;;;;;;;1.77;100.00;99965.24;1760328;81;21423;-49
2022/04/13 05:18:27;;;;;;;0.62;0.62;;;;;;;1.77;100.00;99970.75;1760497;81;21108;-47
2022/04/13 05:20:54;;;;;;;0.70;0.50;;;;;;;1.77;100.00;99970.34;1730701;81;21406;-47
2022/04/13 05:23:21;;;;;;;0.65;0.65;;;;;;;1.78;100.00;99977.56;1760606;81;20936;-46
2022/04/13 05:25:48;;;;;;;1.10;0.90;;;;;;;1.78;100.00;99977.56;1760430;81;21038;-48
2022/04/13 05:28:20;;;;;;;1.07;0.78;;;;;;;1.81;100.00;99981.02;1760672;80;21015;-46
2022/04/13 05:30:58;;;;;;;1.25;0.80;;;;;;;1.83;100.00;99983.56;1760416;81;21153;-46
2022/04/13 05:33:26;;;;;;;1.75;0.80;;;;;;;1.84;100.00;99983.59;1760527;81;20884;-49
2022/04/13 05:36:08;;;;;;;0.80;0.70;;;;;;;1.82;100.00;99978.03;1760404;81;20896;-47
2022/04/13 05:38:36;;;;;;;0.60;0.57;;;;;;;1.84;100.00;99979.77;1760508;81;21404;-46
2022/04/13 05:41:03;;;;;;;2.22;0.62;;;;;;;1.86;100.00;99978.48;1760480;81;20912;-46
2022/04/13 05:43:31;;;;;;;0.60;0.60;;;;;;;1.88;100.00;99979.36;1760567;81;21745;-46
2022/04/13 05:46:16;;;;;;;0.72;0.72;;;;;;;1.86;100.00;99974.66;1760383;81;21010;-47
2022/04/13 05:48:44;;;;;;;0.60;0.60;;;;;;;1.89;100.00;99975.96;1760609;81;21446;-48
2022/04/13 05:51:29;;;;;;;1.25;0.80;;;;;;;1.92;100.00;99984.95;1760474;81;20976;-48
2022/04/13 05:53:56;;;;;;;;;;;;;;;1.93;100.00;99981.55;1763043;81;21045;-45
2022/04/13 05:56:26;;;;;;;0.68;0.55;;;;;;;1.92;100.00;99979.84;1760363;81;21159;-46
2022/04/13 05:59:00;;;;;;;0.93;0.70;;;;;;;1.94;100.00;99983.67;1756484;80;21006;-48
2022/04/13 06:01:28;;;;;;;1.10;0.55;;;;;;;1.97;100.00;99978.59;1758302;81;20960;-47
2022/04/13 06:03:56;;;;;;;0.62;0.62;;;;;;;1.98;100.00;99969.69;1757303;81;20943;-46
2022/04/13 06:06:28;;;;;;;0.72;0.53;;;;;;;2.00;100.00;99960.34;1758587;81;20876;-47
2022/04/13 06:08:54;;;;;;;0.60;0.42;;;;;;;2.03;100.00;99959.92;1758467;81;21066;-47
2022/04/13 06:11:22;;;;;;;0.78;0.60;;;;;;;2.03;100.00;99950.98;1757690;81;20932;-48
2022/04/13 06:13:48;;;;;;;0.62;0.62;;;;;;;2.07;100.00;99959.98;1757816;81;20924;-47
2022/04/13 06:16:16;;;;;;;0.85;0.70;;;;;;;2.05;100.00;99962.07;1757754;81;21030;-47
2022/04/13 06:18:42;;;;;;;0.53;0.53;;;;;;;2.07;100.00;99966.77;1757749;81;20919;-46
2022/04/13 06:21:09;;;;;;;1.85;0.60;;;;;;;2.07;100.00;99959.98;1757851;81;21251;-45
2022/04/13 06:23:38;;;;;;;0.82;0.70;;;;;;;2.07;100.00;99951.44;1757720;81;20984;-47
2022/04/13 06:26:06;;;;;;;0.50;0.50;;;;;;;2.08;100.00;99947.64;1757775;81;20995;-48
2022/04/13 06:28:33;;;;;;;1.27;0.70;;;;;;;2.10;100.00;99937.02;1757792;81;20836;-46
2022/04/13 06:31:00;;;;;;;1.07;0.80;;;;;;;2.09;100.00;99922.95;1757742;81;20935;-47
2022/04/13 06:33:27;;;;;;;2.15;0.40;;;;;;;2.11;100.00;99911.91;1757681;81;21265;-48
2022/04/13 06:35:55;;;;;;;0.60;0.60;;;;;;;2.12;100.00;99931.50;1758195;81;20986;-47
2022/04/13 06:38:22;;;;;;;1.55;0.55;;;;;;;2.12;100.00;99931.50;1757677;81;20932;-47
2022/04/13 06:40:49;;;;;;;0.68;0.68;;;;;;;2.14;100.00;99939.16;1757735;81;20920;-46
2022/04/13 06:43:16;;;;;;;0.70;0.68;;;;;;;2.16;100.00;99942.60;1757862;81;21015;-46
2022/04/13 06:45:44;;;;;;;0.80;0.55;;;;;;;2.19;100.00;99942.63;1757734;81;21599;-46
2022/04/13 06:48:10;;;;;;;0.95;0.60;;;;;;;2.21;100.00;99942.21;1732220;81;20873;-46
2022/04/13 06:50:37;;;;;;;0.40;0.40;;;;;;;2.19;100.00;99952.84;1757445;81;20909;-46
2022/04/13 06:53:04;;;;;;;0.40;0.40;;;;;;;2.20;100.00;99950.72;1757722;81;21028;-48
2022/04/13 06:55:31;;;;;;;0.50;0.50;;;;;;;2.20;100.00;99983.92;1757735;81;20872;-45
2022/04/13 06:58:00;;;;;;;1.20;0.40;;;;;;;2.19;100.00;100004.33;1757903;80;20896;-48
2022/04/13 07:00:27;;;;;;;0.85;0.60;;;;;;;2.19;100.00;99986.45;1759813;81;20865;-46
2022/04/13 07:02:57;;;;;;;0.85;0.60;;;;;;;2.21;100.00;99963.92;1760007;81;20884;-46
2022/04/13 07:05:25;;;;;;;0.60;0.60;;;;;;;2.25;100.00;99975.87;1759886;81;20942;-47
2022/04/13 07:07:52;;;;;;;0.70;0.70;;;;;;;2.26;100.00;99972.47;1759728;80;21065;-46
2022/04/13 07:10:20;;;;;;;0.50;0.50;;;;;;;2.28;100.00;99978.44;1759889;81;20876;-47
2022/04/13 07:12:54;;;;;;;0.95;0.80;;;;;;;2.31;100.00;99972.52;1759944;81;20876;-46
2022/04/13 07:15:22;;;;;;;0.85;0.55;;;;;;;2.28;100.00;99959.28;1759942;81;20888;-47
2022/04/13 07:17:49;;;;;;;0.62;0.45;;;;;;;2.32;100.00;99960.17;1759794;80;21078;-47
2022/04/13 07:20:19;;;;;;;0.70;0.70;;;;;;;2.33;100.00;99949.11;1759955;81;20998;-47
2022/04/13 07:22:53;;;;;;;0.80;0.68;;;;;;;2.35;100.00;99950.38;1759861;81;20940;-45
2022/04/13 07:25:20;;;;;;;0.95;0.60;;;;;;;2.37;100.00;99960.19;1759780;81;20900;-45
2022/04/13 07:27:47;;;;;;;0.50;0.50;;;;;;;2.38;100.00;99959.34;1759779;81;20924;-46
2022/04/13 07:30:14;;;;;;;0.70;0.60;;;;;;;2.39;100.00;99958.50;1759797;81;20928;-46
2022/04/13 07:32:47;;;;;;;0.40;0.40;;;;;;;2.43;100.00;99953.87;1759844;81;20856;-47
2022/04/13 07:35:16;;;;;;;1.07;0.70;;;;;;;2.45;100.00;99945.78;1730332;81;21510;-46
2022/04/13 07:37:43;;;;;;;0.65;0.65;;;;;;;2.43;100.00;99949.59;1729893;81;20888;-46
2022/04/13 07:40:11;;;;;;;0.53;0.53;;;;;;;2.43;100.00;99936.82;1759873;81;20975;-46
2022/04/13 07:42:38;;;;;;;0.60;0.60;;;;;;;2.48;100.00;99965.38;1759850;81;20983;-47
2022/04/13 07:45:08;;;;;;;1.98;0.93;;;;;;;2.47;100.00;99957.28;1759756;81;21497;-46
2022/04/13 07:47:37;;;;;;;0.75;0.70;;;;;;;2.48;100.00;99952.59;1759980;81;20963;-47
2022/04/13 07:50:12;;;;;;;0.90;0.90;;;;;;;2.47;100.00;99960.70;1759812;81;20868;-46
2022/04/13 07:52:37;;;;;;;3.80;1.45;;;;;;;2.47;100.00;99960.70;1759622;81;20955;-46
2022/04/13 07:55:05;;;;;;;1.00;1.00;;;;;;;2.48;100.00;99935.58;1759957;81;21363;-46
2022/04/13 07:57:32;;;;;;;2.00;1.67;;;;;;;2.49;100.00;99937.30;1730340;81;20968;-46
2022/04/13 07:59:58;;;;;;;1.37;1.27;;;;;;;2.50;100.00;99950.50;1759714;80;21129;-48
2022/04/13 08:02:27;;;;;;;1.67;1.57;;;;;;;2.50;100.00;99941.96;1760169;81;21214;-48
2022/04/13 08:04:55;;;;;;;1.80;1.65;;;;;;;2.52;100.00;99952.64;1759898;81;20951;-47
2022/04/13 08:07:22;;;;;;;2.65;1.87;;;;;;;2.57;100.00;99953.52;1759867;81;20920;-47
2022/04/13 08:09:49;;;;;;;3.47;1.80;;;;;;;2.62;100.00;99957.80;1759792;81;20931;-47
2022/04/13 08:12:16;;;;;;;2.33;2.22;;;;;;;2.63;100.00;99962.94;1759954;81;21140;-48
2022/04/13 08:14:46;;;;;;;1.55;1.52;;;;;;;2.68;100.00;99941.24;1759826;80;20892;-47
2022/04/13 08:17:14;;;;;;;3.10;1.90;;;;;;;2.73;100.00;99943.39;1759992;81;20916;-46
2022/04/13 08:19:42;;;;;;;1.70;1.60;;;;;;;2.80;100.00;99948.97;1759634;81;21002;-46
2022/04/13 08:22:11;;;;;;;3.72;2.33;;;;;;;2.83;100.00;99935.36;1760285;81;20884;-46
2022/04/13 08:24:37;;;;;;;2.35;1.90;;;;;;;2.91;100.00;99943.07;1759855;80;21110;-46
2022/04/13 08:27:06;;;;;;;2.05;1.70;;;;;;;2.95;100.00;99948.19;1759651;80;21391;-47
2022/04/13 08:29:34;;;;;;;2.22;2.02;;;;;;;3.05;100.00;99945.25;1759775;81;21027;-46
2022/04/13 08:32:00;;;;;;;2.80;2.15;;;;;;;3.10;100.00;99952.52;1760100;81;21512;-46
2022/04/13 08:34:27;;;;;;;6.67;2.90;;;;;;;3.19;100.00;99953.42;1759824;81;21010;-45
2022/04/13 08:36:54;;;;;;;3.40;2.20;;;;;;;3.19;100.00;99953.42;1759657;81;21087;-47
2022/04/13 08:39:21;;;;;;;2.30;2.10;;;;;;;3.26;100.00;99955.14;1759815;80;20917;-47
2022/04/13 08:41:56;;;;;;;2.65;2.30;;;;;;;3.26;100.00;99955.14;1759954;80;20999;-46
2022/04/13 08:44:28;;;;;;;;;;;;;;;3.28;100.00;99952.16;1760003;81;21256;-45
2022/04/13 08:46:55;;;;;;;2.35;2.15;;;;;;;3.29;100.00;99954.73;1759644;81;20147;-45
2022/04/13 08:49:22;;;;;;;3.35;2.58;;;;;;;3.39;100.00;99959.88;1759752;81;21246;-46
2022/04/13 08:51:49;;;;;;;3.02;2.25;;;;;;;3.39;100.00;99959.88;1759726;81;20987;-46
2022/04/13 08:54:22;;;;;;;4.80;2.52;;;;;;;3.49;100.00;99959.04;1759760;81;21042;-45
2022/04/13 08:56:50;;;;;;;2.87;2.47;;;;;;;3.57;100.00;99953.95;1759723;81;20900;-46
2022/04/13 08:59:40;;;;;;;6.05;2.75;;;;;;;3.60;100.00;99950.11;1759673;80;20880;-45
2022/04/13 09:02:39;;;;;;;3.20;2.90;;;;;;;3.69;100.00;99946.31;1759767;81;22030;-47
2022/04/13 09:05:14;;;;;;;4.33;2.85;;;;;;;3.78;100.00;99956.13;1759684;81;20904;-45
2022/04/13 09:07:42;;;;;;;3.30;3.00;;;;;;;3.81;100.00;99948.45;1759660;81;20963;-46
2022/04/13 09:10:15;;;;;;;3.47;2.65;;;;;;;3.90;100.00;99952.28;1759792;81;20936;-45
2022/04/13 09:12:42;;;;;;;2.95;2.50;;;;;;;3.95;100.00;99958.70;1759868;80;20964;-45
2022/04/13 09:15:10;;;;;;;3.60;2.50;;;;;;;4.03;100.00;99962.11;1759872;81;21450;-45
2022/04/13 09:17:38;;;;;;;4.35;3.30;;;;;;;4.09;100.00;99952.30;1754947;81;21580;-45
2022/04/13 09:20:07;;;;;;;4.30;3.00;;;;;;;4.15;100.00;99953.58;1759810;81;21079;-45
2022/04/13 09:22:33;;;;;;;5.45;3.62;;;;;;;4.18;100.00;99949.77;1760072;81;21403;-45
2022/04/13 09:25:00;;;;;;;4.37;3.45;;;;;;;4.20;100.00;99965.98;1730025;81;20940;-45
2022/04/13 09:27:26;;;;;;;3.47;2.50;;;;;;;4.24;100.00;99962.56;1759643;79;21147;-46
2022/04/13 09:29:53;;;;;;;6.15;2.67;;;;;;;4.33;100.00;99956.58;1759894;81;20994;-45
2022/04/13 09:32:20;;;;;;;4.40;3.70;;;;;;;4.33;100.00;99956.58;1759772;80;20932;-45
2022/04/13 09:34:47;;;;;;;5.80;3.58;;;;;;;4.35;100.00;99947.59;1759660;81;20935;-45
2022/04/13 09:37:14;;;;;;;5.97;3.27;;;;;;;4.37;100.00;99960.84;1759870;81;20963;-45
2022/04/13 09:39:41;;;;;;;3.58;3.15;;;;;;;4.44;100.00;99947.61;1729996;81;21158;-45
2022/04/13 09:42:12;;;;;;;3.92;3.42;;;;;;;4.47;100.00;99960.41;1759684;81;20980;-46
2022/04/13 09:44:42;;;;;;;6.40;3.75;;;;;;;4.47;100.00;99960.41;1759770;81;20936;-45
2022/04/13 09:47:10;;;;;;;4.60;3.90;;;;;;;4.49;100.00;99970.23;1760267;81;20920;-45
2022/04/13 09:49:53;;;;;;;5.95;3.60;;;;;;;4.52;100.00;99949.72;1759900;81;21421;-45
2022/04/13 09:52:17;;;;;;;5.45;3.80;;;;;;;4.60;100.00;99965.94;1758451;81;21016;-45
2022/04/13 09:54:48;;;;;;;6.67;4.50;;;;;;;4.72;100.00;99962.94;1730317;81;20932;-45
2022/04/13 09:57:22;;;;;;;4.20;3.80;;;;;;;4.81;100.00;99964.63;1755246;80;21054;-46
2022/04/13 09:59:57;;;;;;;6.33;4.33;;;;;;;4.86;100.00;99964.19;1758983;80;21027;-45
2022/04/13 10:02:40;;;;;;;5.83;4.33;;;;;;;4.92;100.00;99953.90;1757677;81;21517;-45
2022/04/13 10:05:10;;;;;;;8.00;4.95;;;;;;;5.01;100.00;99964.56;1757764;81;21046;-46
2022/04/13 10:07:36;;;;;;;7.83;5.10;;;;;;;5.08;100.00;99962.39;1757632;81;20884;-46
2022/04/13 10:10:05;;;;;;;5.37;4.25;;;;;;;5.13;100.00;99972.64;1757683;81;20916;-45
2022/04/13 10:12:47;;;;;;;8.03;4.72;;;;;;;5.18;100.00;99975.63;1732402;81;20893;-44
2022/04/13 10:15:14;;;;;;;7.05;4.42;;;;;;;5.25;100.00;99981.56;1757755;81;20852;-45
2022/04/13 10:17:41;;;;;;;6.30;4.30;;;;;;;5.35;100.00;99986.68;1757893;81;22045;-45
2022/04/13 10:20:09;;;;;;;6.67;4.40;;;;;;;5.39;100.00;99986.64;1757588;81;21197;-45
2022/04/13 10:23:02;;;;;;;8.98;5.25;;;;;;;5.42;100.00;99976.35;1757754;81;20928;-45
2022/04/13 10:25:29;;;;;;;5.95;4.87;;;;;;;5.42;100.00;99973.78;1757506;81;21378;-45
2022/04/13 10:27:59;;;;;;;8.28;5.83;;;;;;;5.42;100.00;99976.35;1757791;81;21398;-44
2022/04/13 10:30:36;;;;;;;7.28;5.17;;;;;;;5.48;100.00;99975.48;1757717;81;21040;-44
2022/04/13 10:33:10;;;;;;;6.55;5.65;;;;;;;5.52;100.00;99977.61;1757739;81;20978;-45
2022/04/13 10:35:41;;;;;;;9.90;5.62;;;;;;;5.55;100.00;99983.56;1755936;81;21010;-45
2022/04/13 10:38:09;;;;;;;7.42;5.25;;;;;;;5.60;100.00;99973.27;1757144;81;21430;-45
2022/04/13 10:40:42;;;;;;;9.20;5.78;;;;;;;5.63;100.00;99983.52;1757677;81;20999;-46
2022/04/13 10:43:11;;;;;;;7.95;5.78;;;;;;;5.65;100.00;99968.95;1757093;81;21151;-45
2022/04/13 10:45:40;;;;;;;8.88;5.53;;;;;;;5.76;100.00;99980.45;1757712;81;20861;-46
2022/04/13 10:48:09;;;;;;;7.78;5.80;;;;;;;5.91;100.00;99983.35;1757715;81;20952;-46
2022/04/13 10:50:54;;;;;;;8.95;6.00;;;;;;;6.06;100.00;99979.02;1757737;81;20920;-45
2022/04/13 10:53:26;;;;;;;10.72;5.75;;;;;;;6.16;100.00;99985.78;1757619;81;20975;-45
2022/04/13 10:55:59;;;;;;;7.50;5.58;;;;;;;6.22;100.00;99985.75;1757615;81;21075;-46
2022/04/13 10:58:48;;;;;;;9.80;5.35;;;;;;;6.30;100.00;99980.52;1732514;81;20900;-46
2022/04/13 11:01:15;;;;;;;11.75;6.70;;;;;;;6.37;100.00;99989.91;1759529;80;21002;-46
2022/04/13 11:03:42;;;;;;;8.80;6.53;;;;;;;6.41;100.00;99992.00;1759678;81;21481;-45
2022/04/13 11:06:10;;;;;;;7.85;6.10;;;;;;;6.47;100.00;99980.41;1759927;79;21045;-46
2022/04/13 11:09:01;;;;;;;10.58;6.45;;;;;;;6.53;100.00;99985.48;1759805;81;21921;-45
2022/04/13 11:11:31;;;;;;;9.85;6.55;;;;;;;6.59;100.00;99987.98;1759838;80;20963;-46
2022/04/13 11:13:59;;;;;;;12.35;6.58;;;;;;;6.66;100.00;99984.94;1731137;81;20889;-46
2022/04/13 11:16:27;;;;;;;7.05;6.12;;;;;;;6.72;100.00;99987.88;1759784;81;20916;-46
2022/04/13 11:19:13;;;;;;;9.35;6.08;;;;;;;6.78;100.00;100006.24;1760149;81;20892;-47
2022/04/13 11:22:00;;;;;;;9.48;7.45;;;;;;;6.67;100.00;100008.92;1759824;81;21771;-45
2022/04/13 11:24:41;;;;;;;10.40;7.75;;;;;;;6.68;100.00;99995.19;1759727;80;20947;-45
2022/04/13 11:27:10;;;;;;;7.58;6.33;;;;;;;6.65;100.00;99995.22;1759925;81;20983;-44
2022/04/13 11:30:03;;;;;;;9.70;6.60;;;;;;;6.64;100.00;99996.09;1759776;81;20940;-45
2022/04/13 11:32:34;;;;;;;13.50;7.70;;;;;;;6.70;100.00;100009.75;1759815;81;20920;-45
2022/04/13 11:35:03;;;;;;;9.73;6.78;;;;;;;6.68;100.00;100006.77;1755044;81;21249;-45
2022/04/13 11:37:41;;;;;;;8.55;6.78;;;;;;;6.67;100.00;99993.06;1759718;81;21493;-46
2022/04/13 11:40:15;;;;;;;9.43;7.17;;;;;;;6.75;100.00;99991.26;1759863;81;20936;-46
2022/04/13 11:42:50;;;;;;;10.37;7.10;;;;;;;6.82;100.00;99993.77;1757936;81;20887;-46
2022/04/13 11:45:17;;;;;;;9.93;7.80;;;;;;;6.83;100.00;99994.21;1759932;80;20964;-46
2022/04/13 11:47:51;;;;;;;13.65;7.60;;;;;;;6.78;100.00;100007.11;1759827;79;21148;-45
2022/04/13 11:50:21;;;;;;;9.70;6.85;;;;;;;6.77;100.00;99993.83;1759794;81;20975;-46